Antares Leader — 7JJD — position and weather

sailwx.info

Track history (hours):
 
Tides and Currents Weather Stations Pressure Air Temp Water Temp Dewpoint Dewpoint Depression Visibility Wind Speed Wind Dir Waves Ship Positions

Antares Leader

Last reported at 2018-Jun-21 16:32 UTC. Time now 2018-Jun-21 19:35 UTC.
Position S 26°19' W 047°20'.

Length 199 m; draft 8.7 m.

Type: Cargo ship. MMSI: 432810000.

Date/timePositionNaut miles runAvg speedWind from/ knotsBaromVisibWave heightAir tempDewpointWater temp
2018-Jun-21 16:32S 26°19' W 047°20'117.2
2018-Jun-21 16:30S 26°19' W 047°20'1217.0
2018-Jun-21 15:47S 26°07' W 047°15'517.7
2018-Jun-21 15:31S 26°03' W 047°13'6014.0
2018-Jun-21 11:13S 25°07' W 046°49'417.5
2018-Jun-21 10:58S 25°03' W 046°47'817.4
2018-Jun-21 10:30S 24°55' W 046°44'917.5
2018-Jun-21 10:00S 24°47' W 046°40'917.4
2018-Jun-21 09:28S 24°38' W 046°37'817.4
2018-Jun-21 09:00S 24°31' W 046°33'917.2
2018-Jun-21 08:30S 24°23' W 046°30'917.2
2018-Jun-21 08:00S 24°15' W 046°27'816.9
2018-Jun-21 07:30S 24°07' W 046°23'713.6
2018-Jun-21 07:00S 24°01' W 046°20'4 6.7
2018-Jun-21 06:29S 23°58' W 046°18'1 0.2
2018-Jun-21 02:08S 23°58' W 046°18'0 0.0
2018-Jun-21 01:47S 23°58' W 046°18'0 0.0
2018-Jun-21 01:23S 23°58' W 046°18'0 0.0
2018-Jun-20 23:26S 23°58' W 046°18'0 0.0
2018-Jun-20 18:05S 23°58' W 046°18'0 0.0
2018-Jun-20 16:56S 23°58' W 046°18'0 0.0
2018-Jun-20 16:29S 23°58' W 046°18'0 0.0
2018-Jun-20 15:59S 23°58' W 046°18'0 0.0
2018-Jun-20 15:29S 23°58' W 046°18'0 0.0
2018-Jun-20 14:30S 23°58' W 046°18'2 3.1
2018-Jun-20 13:49S 23°60' W 046°18'2 7.6
2018-Jun-20 13:30S 24°01' W 046°20'2 4.7
2018-Jun-20 13:00S 24°03' W 046°19'0 0.3
2018-Jun-20 12:30S 24°03' W 046°19'4 7.9
2018-Jun-20 12:00S 24°06' W 046°16'5 9.4
2018-Jun-20 11:30S 24°09' W 046°12'611.2
2018-Jun-20 11:00S 24°11' W 046°07'611.8
2018-Jun-20 10:29S 24°14' W 046°01'  
Track history (hours):
 
Tides and Currents Weather Stations Pressure Air Temp Water Temp Dewpoint Dewpoint Depression Visibility Wind Speed Wind Dir Waves Ship Positions

Antares Leader

Last reported at 2018-Jun-21 16:32 UTC. Time now 2018-Jun-21 19:35 UTC.
Position S 26°19' W 047°20'.

Length 199 m; draft 8.7 m.

Type: Cargo ship. MMSI: 432810000.

Date/timePositionNaut miles runAvg speedWind from/ knotsBaromVisibWave heightAir tempDewpointWater temp
2018-Jun-21 16:32S 26°19' W 047°20'117.2
2018-Jun-21 16:30S 26°19' W 047°20'1217.0
2018-Jun-21 15:47S 26°07' W 047°15'517.7
2018-Jun-21 15:31S 26°03' W 047°13'6014.0
2018-Jun-21 11:13S 25°07' W 046°49'417.5
2018-Jun-21 10:58S 25°03' W 046°47'817.4
2018-Jun-21 10:30S 24°55' W 046°44'917.5
2018-Jun-21 10:00S 24°47' W 046°40'917.4
2018-Jun-21 09:28S 24°38' W 046°37'817.4
2018-Jun-21 09:00S 24°31' W 046°33'917.2
2018-Jun-21 08:30S 24°23' W 046°30'917.2
2018-Jun-21 08:00S 24°15' W 046°27'816.9
2018-Jun-21 07:30S 24°07' W 046°23'713.6
2018-Jun-21 07:00S 24°01' W 046°20'4 6.7
2018-Jun-21 06:29S 23°58' W 046°18'1 0.2
2018-Jun-21 02:08S 23°58' W 046°18'0 0.0
2018-Jun-21 01:47S 23°58' W 046°18'0 0.0
2018-Jun-21 01:23S 23°58' W 046°18'0 0.0
2018-Jun-20 23:26S 23°58' W 046°18'0 0.0
2018-Jun-20 18:05S 23°58' W 046°18'0 0.0
2018-Jun-20 16:56S 23°58' W 046°18'0 0.0
2018-Jun-20 16:29S 23°58' W 046°18'0 0.0
2018-Jun-20 15:59S 23°58' W 046°18'0 0.0
2018-Jun-20 15:29S 23°58' W 046°18'0 0.0
2018-Jun-20 14:30S 23°58' W 046°18'2 3.1
2018-Jun-20 13:49S 23°60' W 046°18'2 7.6
2018-Jun-20 13:30S 24°01' W 046°20'2 4.7
2018-Jun-20 13:00S 24°03' W 046°19'0 0.3
2018-Jun-20 12:30S 24°03' W 046°19'4 7.9
2018-Jun-20 12:00S 24°06' W 046°16'5 9.4
2018-Jun-20 11:30S 24°09' W 046°12'611.2
2018-Jun-20 11:00S 24°11' W 046°07'611.8
2018-Jun-20 10:29S 24°14' W 046°01'  

Dump ship's entire track history